Time;durP1;ratioP1;P1;durP2;ratioP2;P2;SDS_P1;SDS_P2;PMS_P1;PMS_P2;Temp;Humidity;BMP_temperature;BMP_pressure;BME280_temperature;BME280_humidity;BME280_pressure;Samples;Min_cycle;Max_cycle;Signal;HPM_P1;HPM_P2
2022/12/14 00:01:38;;;;;;;27.77;12.03;;;-2.30;99.90;;;;;;5011769;28;20126;-48
2022/12/14 00:04:04;;;;;;;25.67;11.70;;;-2.40;99.90;;;;;;5012869;28;20038;-52
2022/12/14 00:06:33;;;;;;;26.50;12.67;;;-2.40;99.90;;;;;;5013389;28;20092;-49
2022/12/14 00:09:01;;;;;;;27.67;11.37;;;-2.40;99.90;;;;;;5013569;28;20428;-50
2022/12/14 00:11:27;;;;;;;25.33;11.57;;;-2.40;99.90;;;;;;5013518;28;20475;-51
2022/12/14 00:13:55;;;;;;;25.67;11.07;;;-2.40;99.90;;;;;;5013618;28;20503;-51
2022/12/14 00:16:23;;;;;;;26.43;11.00;;;-2.30;99.90;;;;;;5013368;28;20437;-51
2022/12/14 00:18:51;;;;;;;28.23;11.60;;;-2.40;99.90;;;;;;5013572;28;20560;-49
2022/12/14 00:21:18;;;;;;;25.20;10.48;;;-2.30;99.90;;;;;;5013523;28;20440;-51
2022/12/14 00:23:45;;;;;;;22.00;10.80;;;-2.30;99.90;;;;;;5013510;28;20052;-50
2022/12/14 00:26:22;;;;;;;23.63;11.60;;;-2.30;99.90;;;;;;5012741;28;20469;-51
2022/12/14 00:28:51;;;;;;;28.37;10.97;;;-2.30;99.90;;;;;;5013189;28;20436;-52
2022/12/14 00:31:16;;;;;;;25.00;11.60;;;-2.30;99.90;;;;;;5013448;28;20824;-49
2022/12/14 00:33:43;;;;;;;26.20;10.63;;;-2.30;99.90;;;;;;5013191;28;20429;-52
2022/12/14 00:36:10;;;;;;;24.17;10.80;;;-2.30;99.90;;;;;;5013324;28;20793;-53
2022/12/14 00:38:37;;;;;;;27.27;11.70;;;-2.30;99.90;;;;;;5012743;28;20484;-53
2022/12/14 00:41:03;;;;;;;26.97;11.13;;;-2.30;99.90;;;;;;5013230;28;20511;-51
2022/12/14 00:43:29;;;;;;;22.37;10.50;;;-2.30;99.90;;;;;;5013012;28;20445;-51
2022/12/14 00:45:55;;;;;;;24.90;10.40;;;-2.30;99.90;;;;;;5013073;28;20471;-49
2022/12/14 00:48:22;;;;;;;25.37;10.97;;;-2.40;99.90;;;;;;5012950;28;20474;-53
2022/12/14 00:50:50;;;;;;;22.63;9.73;;;-2.40;99.90;;;;;;5012880;28;20037;-51
2022/12/14 00:53:16;;;;;;;21.30;9.63;;;-2.40;99.90;;;;;;5012786;28;20969;-48
2022/12/14 00:55:44;;;;;;;22.60;10.27;;;-2.40;99.90;;;;;;5012769;28;20527;-47
2022/12/14 00:58:12;;;;;;;28.83;10.70;;;-2.40;99.90;;;;;;5012642;28;20440;-47
2022/12/14 01:00:38;;;;;;;20.17;9.83;;;-2.40;99.90;;;;;;5012535;28;20479;-49
2022/12/14 01:03:05;;;;;;;19.67;9.73;;;-2.40;99.90;;;;;;5012557;28;20977;-50
2022/12/14 01:05:33;;;;;;;21.83;9.97;;;-2.40;99.90;;;;;;5012616;28;20512;-52
2022/12/14 01:08:00;;;;;;;21.40;10.27;;;-2.40;99.90;;;;;;5012501;28;20437;-52
2022/12/14 01:10:25;;;;;;;26.63;10.23;;;-2.40;99.90;;;;;;5012504;28;20444;-51
2022/12/14 01:12:51;;;;;;;21.10;9.50;;;-2.40;99.90;;;;;;5012260;28;20399;-51
2022/12/14 01:15:17;;;;;;;21.20;9.23;;;-2.30;99.90;;;;;;5012679;28;20034;-50
2022/12/14 01:17:43;;;;;;;24.23;10.47;;;-2.30;99.90;;;;;;5012727;28;20121;-54
2022/12/14 01:20:09;;;;;;;20.80;9.13;;;-2.30;99.90;;;;;;5012264;28;20444;-50
2022/12/14 01:22:35;;;;;;;20.33;9.57;;;-2.30;99.90;;;;;;5012194;28;20500;-46
2022/12/14 01:25:02;;;;;;;21.27;9.67;;;-2.40;99.90;;;;;;5012426;28;20847;-51
2022/12/14 01:27:28;;;;;;;20.43;9.47;;;-2.40;99.90;;;;;;5012051;28;20475;-48
2022/12/14 01:29:53;;;;;;;19.70;9.10;;;-2.40;99.90;;;;;;5012101;28;20108;-51
2022/12/14 01:32:19;;;;;;;23.00;9.87;;;-2.40;99.90;;;;;;5012405;28;20540;-47
2022/12/14 01:34:47;;;;;;;19.77;9.47;;;-2.40;99.90;;;;;;5012208;28;20068;-50
2022/12/14 01:37:12;;;;;;;19.37;9.37;;;-2.50;99.90;;;;;;5011896;28;20558;-50
2022/12/14 01:39:38;;;;;;;19.60;8.83;;;-2.50;99.90;;;;;;5011747;28;20466;-49
2022/12/14 01:42:10;;;;;;;20.33;9.23;;;-2.50;99.90;;;;;;5012145;28;20431;-51
2022/12/14 01:44:39;;;;;;;22.73;9.70;;;-2.50;99.90;;;;;;5011994;28;20040;-49
2022/12/14 01:47:13;;;;;;;20.10;9.90;;;-2.50;99.90;;;;;;5011790;28;20464;-53
2022/12/14 01:49:50;;;;;;;22.87;10.30;;;-2.60;99.90;;;;;;5010698;28;20548;-48
2022/12/14 01:52:18;;;;;;;22.57;9.83;;;-2.60;99.90;;;;;;5011112;28;20443;-50
2022/12/14 01:55:12;;;;;;;18.83;8.98;;;-2.70;99.90;;;;;;5011846;28;20460;-46
2022/12/14 01:57:49;;;;;;;25.17;10.57;;;-2.70;99.90;;;;;;5011624;28;20034;-50
2022/12/14 02:00:18;;;;;;;19.60;8.93;;;-2.80;99.90;;;;;;5011470;28;20429;-47
2022/12/14 02:02:51;;;;;;;20.30;9.57;;;-2.80;99.90;;;;;;5013654;23;20536;-53
2022/12/14 02:05:19;;;;;;;21.73;9.77;;;-2.90;99.90;;;;;;4992034;28;20034;-53
2022/12/14 02:07:46;;;;;;;24.03;10.47;;;-2.90;99.90;;;;;;4991658;28;20516;-54
2022/12/14 02:10:12;;;;;;;19.73;9.73;;;-3.00;99.90;;;;;;4991696;28;20436;-53
2022/12/14 02:12:44;;;;;;;23.07;10.57;;;-3.00;99.90;;;;;;4992005;28;20441;-55
2022/12/14 02:15:11;;;;;;;23.47;10.37;;;-3.00;99.90;;;;;;4991422;28;20030;-54
2022/12/14 02:17:38;;;;;;;22.20;10.53;;;-3.10;99.90;;;;;;4991406;28;21143;-55
2022/12/14 02:20:04;;;;;;;22.70;10.53;;;-3.10;99.90;;;;;;4991279;28;20775;-56
2022/12/14 02:22:40;;;;;;;26.60;9.60;;;-3.10;99.90;;;;;;4991152;28;20982;-53
2022/12/14 02:25:15;;;;;;;27.73;9.93;;;-3.10;99.90;;;;;;4991660;28;20532;-53
2022/12/14 02:27:55;;;;;;;21.27;10.43;;;-3.10;99.90;;;;;;4991656;28;20458;-56
2022/12/14 02:30:26;;;;;;;19.60;9.93;;;-3.00;99.90;;;;;;4991481;28;20426;-55
2022/12/14 02:33:04;;;;;;;22.27;9.53;;;-3.00;99.90;;;;;;4991244;28;20457;-54
2022/12/14 02:35:48;;;;;;;20.27;8.80;;;-3.00;99.90;;;;;;4991410;28;20429;-54
2022/12/14 02:38:30;;;;;;;19.80;8.40;;;-3.00;99.90;;;;;;4991241;28;20426;-54
2022/12/14 02:41:15;;;;;;;18.87;9.07;;;-3.00;99.90;;;;;;4991327;28;20544;-55
2022/12/14 02:44:17;;;;;;;19.53;9.53;;;-3.10;99.90;;;;;;4991406;28;20437;-56
2022/12/14 02:47:01;;;;;;;19.23;8.37;;;-3.10;99.90;;;;;;4999749;28;20481;-54
2022/12/14 02:50:07;;;;;;;22.50;8.67;;;-3.10;99.90;;;;;;4990987;28;20425;-52
2022/12/14 02:52:53;;;;;;;20.30;8.47;;;-3.00;99.90;;;;;;4991242;28;20600;-54
2022/12/14 02:55:28;;;;;;;19.70;8.43;;;-3.00;99.90;;;;;;4990876;28;20429;-51
2022/12/14 02:58:34;;;;;;;20.27;8.83;;;-3.00;99.90;;;;;;4990982;28;20455;-54
2022/12/14 03:01:01;;;;;;;18.63;8.57;;;-3.00;99.90;;;;;;4993433;28;20457;-55
2022/12/14 03:03:27;;;;;;;21.27;9.47;;;-3.00;99.90;;;;;;4991102;28;20464;-53
2022/12/14 03:06:03;;;;;;;18.80;8.87;;;-3.00;99.90;;;;;;4991221;28;20461;-54
2022/12/14 03:08:33;;;;;;;23.87;9.40;;;-3.10;99.90;;;;;;4990848;28;20033;-54
2022/12/14 03:11:02;;;;;;;22.43;9.27;;;-3.10;99.90;;;;;;4991308;28;20460;-52
2022/12/14 03:13:50;;;;;;;20.58;9.43;;;-3.00;99.90;;;;;;4991231;28;20454;-55
2022/12/14 03:16:21;;;;;;;20.53;9.03;;;-3.10;99.90;;;;;;4991074;28;20061;-53
2022/12/14 03:19:14;;;;;;;21.77;9.50;;;-3.10;99.90;;;;;;4990745;28;20441;-53
2022/12/14 03:22:05;;;;;;;20.47;9.67;;;-3.10;99.90;;;;;;4992367;28;20481;-55
2022/12/14 03:24:49;;;;;;;21.17;9.60;;;-3.10;99.90;;;;;;4993067;28;20564;-55
2022/12/14 03:27:21;;;;;;;21.73;9.53;;;-3.10;99.90;;;;;;4990779;28;20453;-54
2022/12/14 03:29:55;;;;;;;18.43;8.77;;;-3.20;99.90;;;;;;4991015;28;20455;-53
2022/12/14 03:32:25;;;;;;;18.23;8.83;;;-3.10;99.90;;;;;;4991066;28;20440;-54
2022/12/14 03:34:54;;;;;;;23.93;9.77;;;-3.10;99.90;;;;;;4994947;28;20425;-53
2022/12/14 03:37:29;;;;;;;20.10;8.83;;;-3.20;99.90;;;;;;4994603;28;20472;-54
2022/12/14 03:39:55;;;;;;;18.47;8.77;;;-3.10;99.90;;;;;;4994690;28;20417;-55
2022/12/14 03:42:29;;;;;;;20.03;9.13;;;-3.10;99.90;;;;;;4994687;28;20465;-55
2022/12/14 03:45:14;;;;;;;24.97;9.63;;;-3.10;99.90;;;;;;4994953;28;20069;-56
2022/12/14 03:48:09;;;;;;;21.10;9.20;;;-3.10;99.90;;;;;;4994369;28;20564;-54
2022/12/14 03:50:46;;;;;;;21.47;8.87;;;-3.10;99.90;;;;;;4994527;28;20438;-55
2022/12/14 03:53:29;;;;;;;21.17;9.03;;;-3.10;99.90;;;;;;4994566;28;20445;-53
2022/12/14 03:56:13;;;;;;;21.60;9.20;;;-3.10;99.90;;;;;;4994502;28;20453;-54
2022/12/14 03:59:06;;;;;;;20.40;8.63;;;-3.10;99.90;;;;;;4993977;28;20825;-53
2022/12/14 04:01:42;;;;;;;19.30;8.33;;;-3.10;99.90;;;;;;4993993;28;20619;-52
2022/12/14 04:04:11;;;;;;;18.37;8.33;;;-3.10;99.90;;;;;;4994459;28;20444;-54
2022/12/14 04:06:39;;;;;;;16.93;7.80;;;-3.00;99.90;;;;;;4993982;28;20457;-53
2022/12/14 04:09:11;;;;;;;18.97;8.53;;;-3.00;99.90;;;;;;4994225;28;20430;-55
2022/12/14 04:20:22;;;;;;;17.63;7.70;;;-2.90;99.90;;;;;;4993984;28;20492;-53
2022/12/14 04:22:54;;;;;;;21.47;8.23;;;-2.80;99.90;;;;;;4993522;28;20508;-53
2022/12/14 04:31:06;;;;;;;;;;;-2.80;99.90;;;;;;5002483;28;20452;-53
2022/12/14 04:33:46;;;;;;;18.53;7.37;;;-2.80;99.90;;;;;;4987203;28;19917;-56
2022/12/14 04:36:23;;;;;;;16.13;7.40;;;-2.90;99.90;;;;;;4992295;28;20433;-52
2022/12/14 04:38:56;;;;;;;17.77;7.53;;;-2.80;99.90;;;;;;4991986;28;20544;-53
2022/12/14 04:41:27;;;;;;;16.43;7.43;;;-2.80;99.90;;;;;;4992320;28;20436;-54
2022/12/14 04:43:56;;;;;;;20.53;7.77;;;-2.80;99.90;;;;;;4991568;28;20437;-55
2022/12/14 04:46:28;;;;;;;18.58;8.07;;;-2.80;99.90;;;;;;4991215;28;21056;-52
2022/12/14 04:49:00;;;;;;;19.43;7.70;;;-2.70;99.90;;;;;;4989744;28;20499;-52
2022/12/14 04:52:01;;;;;;;17.20;7.63;;;-2.70;99.90;;;;;;4992088;28;20444;-53
2022/12/14 04:54:37;;;;;;;15.93;7.43;;;-2.70;99.90;;;;;;4987697;28;20945;-55
2022/12/14 04:57:14;;;;;;;19.83;7.70;;;-2.70;99.90;;;;;;4991305;28;20429;-54
2022/12/14 04:59:41;;;;;;;18.40;7.87;;;-2.70;99.90;;;;;;4991841;28;20445;-54
2022/12/14 05:02:19;;;;;;;18.03;7.83;;;-2.70;99.90;;;;;;4990261;28;20461;-53
2022/12/14 05:04:53;;;;;;;16.10;7.17;;;-2.70;99.90;;;;;;4991819;28;20448;-52
2022/12/14 05:07:40;;;;;;;16.93;6.80;;;-2.70;99.90;;;;;;4991086;28;20466;-53
2022/12/14 05:10:23;;;;;;;14.93;6.97;;;-2.70;99.90;;;;;;4991407;28;20774;-54
2022/12/14 05:13:07;;;;;;;15.03;7.20;;;-2.60;99.90;;;;;;4990977;28;20464;-52
2022/12/14 05:15:39;;;;;;;14.43;6.80;;;-2.60;99.90;;;;;;4991000;28;20429;-54
2022/12/14 05:18:06;;;;;;;16.43;7.27;;;-2.50;99.90;;;;;;4990742;28;20778;-54
2022/12/14 05:20:32;;;;;;;16.93;6.90;;;-2.50;99.90;;;;;;4989918;28;20417;-54
2022/12/14 05:22:57;;;;;;;13.23;6.50;;;-2.50;99.90;;;;;;4991244;28;21055;-53
2022/12/14 05:25:23;;;;;;;14.53;6.27;;;-2.50;99.90;;;;;;4991467;28;20356;-55
2022/12/14 05:27:49;;;;;;;17.83;7.00;;;-2.40;99.90;;;;;;4991073;28;20042;-55
2022/12/14 05:30:15;;;;;;;14.97;7.00;;;-2.40;99.90;;;;;;4991016;28;20084;-54
2022/12/14 05:32:41;;;;;;;15.03;6.60;;;-2.40;99.90;;;;;;4990012;28;20030;-54
2022/12/14 05:35:07;;;;;;;13.97;6.07;;;-2.40;99.90;;;;;;4991024;28;20548;-54
2022/12/14 05:37:33;;;;;;;13.37;5.50;;;-2.30;99.90;;;;;;4990458;28;20128;-56
2022/12/14 05:39:58;;;;;;;14.93;5.97;;;-2.30;99.90;;;;;;4990820;28;20592;-54
2022/12/14 05:42:24;;;;;;;14.17;6.77;;;-2.30;99.90;;;;;;4990575;28;20049;-55
2022/12/14 05:44:50;;;;;;;15.10;5.63;;;-2.30;99.90;;;;;;4991021;28;20037;-54
2022/12/14 05:47:16;;;;;;;15.37;6.57;;;-2.30;99.90;;;;;;4989480;28;20085;-53
2022/12/14 05:49:41;;;;;;;12.73;6.23;;;-2.30;99.90;;;;;;4990799;28;20344;-54
2022/12/14 05:52:07;;;;;;;14.83;5.80;;;-2.30;99.90;;;;;;4990624;28;20023;-55
2022/12/14 05:54:33;;;;;;;13.47;5.93;;;-2.30;99.90;;;;;;4990900;28;20041;-53
2022/12/14 05:56:58;;;;;;;11.90;5.37;;;-2.40;99.90;;;;;;4989632;28;20038;-55
2022/12/14 05:59:24;;;;;;;12.10;5.43;;;-2.30;99.90;;;;;;4990209;28;20044;-55
2022/12/14 06:01:50;;;;;;;13.10;5.60;;;-2.30;99.90;;;;;;4990024;28;20179;-53
2022/12/14 06:04:16;;;;;;;15.43;5.27;;;-2.30;99.90;;;;;;4989886;28;20057;-53
2022/12/14 06:06:42;;;;;;;10.80;5.93;;;-2.30;99.90;;;;;;4990307;28;20406;-52
2022/12/14 06:09:10;;;;;;;16.10;5.43;;;-2.20;99.90;;;;;;4990144;28;20577;-52
2022/12/14 06:11:38;;;;;;;10.47;4.60;;;-2.20;99.90;;;;;;4990007;28;20038;-55
2022/12/14 06:14:04;;;;;;;13.67;4.87;;;-2.20;99.90;;;;;;4990720;28;20552;-55
2022/12/14 06:16:30;;;;;;;11.57;5.30;;;-2.20;99.90;;;;;;4989869;28;20500;-54
2022/12/14 06:18:57;;;;;;;13.87;4.90;;;-2.10;99.90;;;;;;4987864;28;20038;-55
2022/12/14 06:21:26;;;;;;;10.13;4.90;;;-2.10;99.90;;;;;;4990237;28;20041;-52
2022/12/14 06:23:53;;;;;;;10.25;4.57;;;-2.20;99.90;;;;;;4990150;28;20500;-54
2022/12/14 06:26:18;;;;;;;12.43;5.00;;;-2.10;99.90;;;;;;4989814;28;20088;-53
2022/12/14 06:28:44;;;;;;;12.83;4.93;;;-2.10;99.90;;;;;;4989592;28;21030;-50
2022/12/14 06:31:21;;;;;;;12.23;5.33;;;-2.10;99.90;;;;;;4989897;28;20023;-51
2022/12/14 06:33:48;;;;;;;12.67;5.10;;;-2.20;99.90;;;;;;4989602;28;20022;-51
2022/12/14 06:36:22;;;;;;;11.30;5.03;;;-2.20;99.90;;;;;;4990175;28;20040;-51
2022/12/14 06:38:55;;;;;;;11.43;4.97;;;-2.10;99.90;;;;;;4989840;28;20437;-50
2022/12/14 06:41:22;;;;;;;13.43;5.47;;;-2.10;99.90;;;;;;4989875;28;20118;-60
2022/12/14 06:43:49;;;;;;;11.67;4.60;;;-2.00;99.90;;;;;;4990134;28;20037;-51
2022/12/14 06:46:17;;;;;;;11.70;5.00;;;-2.10;99.90;;;;;;4989398;28;20073;-52
2022/12/14 06:48:47;;;;;;;12.23;5.13;;;-2.10;99.90;;;;;;4988685;28;20970;-48
2022/12/14 06:51:12;;;;;;;11.60;5.00;;;-2.10;99.90;;;;;;4989710;28;20429;-49
2022/12/14 06:53:38;;;;;;;12.73;5.33;;;-2.10;99.90;;;;;;4989745;28;20518;-53
2022/12/14 06:56:09;;;;;;;11.50;4.73;;;-2.10;99.90;;;;;;4990025;28;20057;-52
2022/12/14 06:58:35;;;;;;;16.60;5.70;;;-2.10;99.90;;;;;;4989661;28;20228;-48
2022/12/14 07:01:06;;;;;;;12.37;5.50;;;-2.10;99.90;;;;;;4989284;28;20548;-52
2022/12/14 07:03:32;;;;;;;15.40;6.00;;;-2.10;99.90;;;;;;4988785;28;20372;-50
2022/12/14 07:05:59;;;;;;;10.00;4.57;;;-2.10;99.90;;;;;;4989453;28;20462;-51
2022/12/14 07:08:25;;;;;;;12.93;5.23;;;-2.00;99.90;;;;;;4989450;28;20030;-50
2022/12/14 07:10:52;;;;;;;10.43;5.00;;;-2.00;99.90;;;;;;4989385;28;20030;-48
2022/12/14 07:13:18;;;;;;;13.97;4.97;;;-2.00;99.90;;;;;;4988055;28;20411;-48
2022/12/14 07:15:50;;;;;;;12.50;5.27;;;-2.00;99.90;;;;;;4989140;28;20393;-48
2022/12/14 07:18:15;;;;;;;10.43;4.70;;;-2.00;99.90;;;;;;4988355;28;20491;-48
2022/12/14 07:20:42;;;;;;;12.97;4.90;;;-2.00;99.90;;;;;;4989012;28;20441;-49
2022/12/14 07:23:07;;;;;;;11.57;4.83;;;-2.00;99.90;;;;;;4989224;28;20026;-53
2022/12/14 07:25:33;;;;;;;10.47;4.00;;;-2.00;99.90;;;;;;4989269;28;20089;-54
2022/12/14 07:27:59;;;;;;;10.90;5.07;;;-2.00;99.90;;;;;;4988987;28;20110;-54
2022/12/14 07:30:24;;;;;;;17.97;6.30;;;-2.00;99.90;;;;;;4988702;28;20030;-51
2022/12/14 07:32:50;;;;;;;12.47;4.70;;;-2.00;99.90;;;;;;4996848;28;20037;-48
2022/12/14 07:35:16;;;;;;;11.07;4.50;;;-1.90;99.90;;;;;;5007122;28;20394;-47
2022/12/14 07:37:41;;;;;;;11.40;4.17;;;-1.90;99.90;;;;;;5008100;28;20034;-51
2022/12/14 07:40:08;;;;;;;10.60;4.37;;;-1.90;99.90;;;;;;5008469;28;20486;-45
2022/12/14 07:42:33;;;;;;;8.73;3.77;;;-1.90;99.90;;;;;;5004107;28;22467;-44
2022/12/14 07:45:01;;;;;;;10.93;4.30;;;-1.90;99.90;;;;;;5004614;28;20062;-43
2022/12/14 07:47:30;;;;;;;11.73;4.27;;;-1.90;99.90;;;;;;5006723;28;20378;-44
2022/12/14 07:49:55;;;;;;;8.53;3.70;;;-1.80;99.90;;;;;;5007968;28;20092;-48
2022/12/14 07:52:21;;;;;;;8.27;3.90;;;-1.70;99.90;;;;;;5007712;28;20647;-50
2022/12/14 07:54:47;;;;;;;12.50;4.57;;;-1.70;99.90;;;;;;5008064;28;20382;-48
2022/12/14 07:57:13;;;;;;;8.10;3.83;;;-1.70;99.90;;;;;;5006929;28;20041;-47
2022/12/14 07:59:38;;;;;;;12.97;4.23;;;-1.70;99.90;;;;;;5008132;28;20109;-52
2022/12/14 08:02:04;;;;;;;12.20;3.97;;;-1.70;99.90;;;;;;5007320;28;20045;-51
2022/12/14 08:04:33;;;;;;;9.27;3.97;;;-1.70;99.90;;;;;;5007492;28;20029;-47
2022/12/14 08:06:58;;;;;;;11.93;3.80;;;-1.70;99.90;;;;;;5007819;28;20025;-50
2022/12/14 08:09:24;;;;;;;24.97;4.67;;;-1.60;99.90;;;;;;5008237;28;20027;-51
2022/12/14 08:11:50;;;;;;;9.90;4.00;;;-1.50;99.90;;;;;;5006956;28;20040;-53
2022/12/14 08:14:17;;;;;;;9.37;4.13;;;-1.50;99.90;;;;;;5007369;28;20030;-52
2022/12/14 08:16:45;;;;;;;8.70;4.20;;;-1.50;99.90;;;;;;5007405;28;20248;-46
2022/12/14 08:19:11;;;;;;;10.23;4.43;;;-1.60;99.90;;;;;;5008853;28;20030;-49
2022/12/14 08:21:38;;;;;;;10.90;4.67;;;-1.60;99.90;;;;;;5011828;28;20041;-47
2022/12/14 08:24:03;;;;;;;13.63;4.90;;;-1.60;99.90;;;;;;5011372;28;20045;-48
2022/12/14 08:29:21;;;;;;;14.70;5.33;;;-1.60;99.90;;;;;;4929710;29;20738;-50
2022/12/14 08:31:47;;;;;;;11.20;5.30;;;-1.60;99.90;;;;;;4932712;29;20107;-52
2022/12/14 08:34:14;;;;;;;16.87;6.60;;;-1.50;99.90;;;;;;4934354;28;20114;-49
2022/12/14 08:36:40;;;;;;;15.80;5.93;;;-1.50;99.90;;;;;;4935624;28;20043;-51
2022/12/14 08:39:08;;;;;;;18.37;6.50;;;-1.50;99.90;;;;;;4969345;28;20118;-49
2022/12/14 08:41:35;;;;;;;22.85;6.65;;;-1.60;99.90;;;;;;4969118;28;20035;-50
2022/12/14 08:44:03;;;;;;;17.47;6.73;;;-1.60;99.90;;;;;;4952491;28;20043;-51
2022/12/14 08:46:30;;;;;;;17.67;6.60;;;-1.60;99.90;;;;;;4951869;28;20031;-51
2022/12/14 08:48:56;;;;;;;21.53;6.93;;;-1.60;99.90;;;;;;4952234;28;20039;-48
2022/12/14 08:51:24;;;;;;;17.20;6.63;;;-1.50;99.90;;;;;;4964362;28;20039;-51
2022/12/14 08:53:51;;;;;;;23.23;7.33;;;-1.40;99.90;;;;;;4972057;28;20027;-52
2022/12/14 08:56:23;;;;;;;17.00;7.17;;;-1.40;99.90;;;;;;4971943;28;20499;-52
2022/12/14 08:58:49;;;;;;;19.10;6.70;;;-1.40;99.90;;;;;;4972136;28;20109;-53
2022/12/14 09:01:18;;;;;;;19.97;6.47;;;-1.40;99.90;;;;;;4967074;28;20492;-52
2022/12/14 09:03:45;;;;;;;19.77;5.60;;;-1.40;99.90;;;;;;4950153;28;20069;-47
2022/12/14 09:06:19;;;;;;;19.50;6.70;;;-1.30;99.90;;;;;;4952119;28;20411;-48
2022/12/14 09:08:45;;;;;;;22.30;6.57;;;-1.30;99.90;;;;;;4954699;28;20039;-46
2022/12/14 09:11:13;;;;;;;16.00;6.13;;;-1.30;99.90;;;;;;4952904;28;20050;-49
2022/12/14 09:13:40;;;;;;;18.30;6.60;;;-1.30;99.90;;;;;;4953304;28;20040;-48
2022/12/14 09:16:10;;;;;;;18.33;6.80;;;-1.30;99.90;;;;;;4951671;28;20123;-52
2022/12/14 09:18:36;;;;;;;17.10;6.63;;;-1.30;99.90;;;;;;4950263;28;20032;-48
2022/12/14 09:21:02;;;;;;;19.43;6.83;;;-1.30;99.90;;;;;;4950458;28;20373;-53
2022/12/14 09:23:30;;;;;;;20.80;7.40;;;-1.30;99.90;;;;;;4951062;28;20042;-48
2022/12/14 09:26:09;;;;;;;17.47;7.17;;;-1.30;99.90;;;;;;4950723;28;20035;-53
2022/12/14 09:28:37;;;;;;;16.03;7.13;;;-1.30;99.90;;;;;;4954787;28;20047;-51
2022/12/14 09:31:09;;;;;;;18.90;7.60;;;-1.30;99.90;;;;;;4950487;28;20056;-52
2022/12/14 09:33:35;;;;;;;21.40;7.63;;;-1.40;99.90;;;;;;4950952;28;20058;-52
2022/12/14 09:36:13;;;;;;;17.87;7.13;;;-1.40;99.90;;;;;;4951531;28;20082;-54
2022/12/14 09:38:40;;;;;;;19.30;7.70;;;-1.40;99.90;;;;;;4950030;28;20027;-54
2022/12/14 09:41:19;;;;;;;20.67;7.23;;;-1.40;99.90;;;;;;4953189;28;20082;-54
2022/12/14 09:43:55;;;;;;;19.17;7.88;;;-1.50;99.90;;;;;;4971057;28;20081;-53
2022/12/14 09:46:49;;;;;;;18.77;7.63;;;-1.40;99.90;;;;;;4970631;28;20088;-52
2022/12/14 09:49:28;;;;;;;18.47;7.50;;;-1.40;99.90;;;;;;4970523;28;20567;-54
2022/12/14 09:51:57;;;;;;;19.65;8.02;;;-1.40;99.90;;;;;;4971219;28;20045;-49
2022/12/14 09:54:28;;;;;;;17.90;8.18;;;-1.50;99.90;;;;;;4985674;28;20066;-48
2022/12/14 09:56:58;;;;;;;22.60;7.73;;;-1.50;99.90;;;;;;4970963;28;20114;-50
2022/12/14 09:59:27;;;;;;;17.73;7.43;;;-1.50;99.90;;;;;;4970981;28;20063;-53
2022/12/14 10:02:32;;;;;;;21.58;7.20;;;-1.50;99.90;;;;;;4970923;28;20471;-48
2022/12/14 10:05:36;;;;;;;19.03;8.00;;;-1.60;99.90;;;;;;4970269;28;20088;-52
2022/12/14 10:08:17;;;;;;;20.63;8.00;;;-1.50;99.90;;;;;;4970689;28;20046;-53
2022/12/14 10:11:06;;;;;;;17.70;7.87;;;-1.60;99.90;;;;;;4970734;28;20551;-52
2022/12/14 10:13:34;;;;;;;26.73;8.50;;;-1.60;99.90;;;;;;4971058;28;20054;-50
2022/12/14 10:16:16;;;;;;;19.25;8.00;;;-1.50;99.90;;;;;;4970629;28;20492;-52
2022/12/14 10:19:20;;;;;;;20.67;8.00;;;-1.50;99.90;;;;;;4969862;28;20047;-50
2022/12/14 10:21:47;;;;;;;19.33;8.00;;;-1.40;99.90;;;;;;4971045;28;20455;-52
2022/12/14 10:24:19;;;;;;;19.97;7.77;;;-1.20;99.90;;;;;;4970875;28;20031;-50
2022/12/14 10:26:54;;;;;;;19.03;8.43;;;-1.10;99.90;;;;;;4970260;28;20035;-49
2022/12/14 10:29:29;;;;;;;23.67;8.60;;;-1.10;99.90;;;;;;4970452;28;20122;-47
2022/12/14 10:32:31;;;;;;;24.10;8.60;;;-1.00;99.90;;;;;;4968741;28;20065;-49
2022/12/14 10:34:58;;;;;;;26.83;8.37;;;-1.00;99.90;;;;;;4970750;28;20440;-50
2022/12/14 10:37:41;;;;;;;27.03;9.10;;;-1.00;99.90;;;;;;4970171;28;20540;-48
2022/12/14 10:40:16;;;;;;;25.10;7.47;;;-0.90;99.90;;;;;;4970304;28;20712;-49
2022/12/14 10:43:00;;;;;;;20.47;8.57;;;-0.80;99.90;;;;;;4956372;28;20110;-49
2022/12/14 10:45:56;;;;;;;21.40;8.70;;;-0.80;99.90;;;;;;4951110;28;20421;-47
2022/12/14 10:48:27;;;;;;;23.27;8.57;;;-0.60;99.90;;;;;;4950510;28;20031;-47
2022/12/14 10:50:59;;;;;;;21.83;9.10;;;-0.60;99.90;;;;;;4951035;29;20512;-50
2022/12/14 10:53:41;;;;;;;22.53;8.93;;;-0.60;99.90;;;;;;4950813;28;20042;-51
2022/12/14 10:56:32;;;;;;;19.63;8.23;;;-0.50;99.90;;;;;;4951021;28;20377;-52
2022/12/14 10:59:25;;;;;;;21.53;8.03;;;-0.50;99.90;;;;;;4950600;28;20141;-50
2022/12/14 11:02:06;;;;;;;20.90;8.37;;;-0.50;99.90;;;;;;4950443;28;20031;-52
2022/12/14 11:04:50;;;;;;;21.20;8.93;;;-0.50;99.90;;;;;;4950984;28;20512;-51
2022/12/14 11:07:20;;;;;;;21.73;7.93;;;-0.30;99.90;;;;;;4949451;28;20039;-49
2022/12/14 11:09:46;;;;;;;20.33;8.07;;;-0.30;99.90;;;;;;4950604;28;20396;-49
2022/12/14 11:12:20;;;;;;;19.27;8.07;;;-0.20;99.90;;;;;;4950223;28;20121;-54
2022/12/14 11:15:05;;;;;;;21.40;8.50;;;-0.30;99.90;;;;;;4950812;28;20050;-54
2022/12/14 11:17:38;;;;;;;20.30;8.37;;;-0.30;99.90;;;;;;4948569;28;20038;-53
2022/12/14 11:20:24;;;;;;;21.30;9.17;;;-0.30;99.90;;;;;;4949997;28;20098;-52
2022/12/14 11:22:57;;;;;;;18.77;7.77;;;-0.20;99.90;;;;;;4950225;28;20054;-47
2022/12/14 11:25:41;;;;;;;17.70;7.60;;;-0.10;99.90;;;;;;4950602;28;20027;-51
2022/12/14 11:28:39;;;;;;;20.97;8.33;;;-0.10;99.90;;;;;;4949705;28;20032;-53
2022/12/14 11:31:20;;;;;;;20.27;8.10;;;0.00;99.90;;;;;;4950419;28;20307;-49
2022/12/14 11:33:51;;;;;;;16.10;7.10;;;0.00;99.90;;;;;;4949539;28;20036;-53
2022/12/14 11:36:25;;;;;;;13.23;6.93;;;0.00;99.90;;;;;;4949755;28;20110;-53
2022/12/14 11:39:01;;;;;;;17.00;7.40;;;0.20;99.90;;;;;;4949846;28;20042;-48
2022/12/14 11:41:34;;;;;;;19.60;7.23;;;0.30;99.90;;;;;;4968856;28;20479;-50
2022/12/14 11:44:03;;;;;;;19.23;7.40;;;0.50;99.90;;;;;;4969815;28;20035;-52
2022/12/14 11:46:52;;;;;;;18.23;6.53;;;0.60;99.90;;;;;;4968875;28;20050;-52
2022/12/14 11:49:38;;;;;;;15.63;6.78;;;0.60;99.90;;;;;;4969373;28;20404;-51
2022/12/14 11:52:04;;;;;;;15.47;6.73;;;0.50;99.90;;;;;;4969819;28;20469;-51
2022/12/14 11:54:38;;;;;;;15.83;7.37;;;0.50;99.90;;;;;;4971683;28;20507;-52
2022/12/14 11:57:07;;;;;;;16.03;7.63;;;0.60;99.90;;;;;;4972536;28;20487;-49
2022/12/14 11:59:58;;;;;;;16.98;6.90;;;0.70;99.90;;;;;;4987963;28;20060;-53
2022/12/14 12:02:29;;;;;;;16.17;6.93;;;0.70;99.90;;;;;;4971588;28;20301;-50
2022/12/14 12:05:10;;;;;;;16.73;7.40;;;0.60;99.90;;;;;;4973303;28;20388;-50
2022/12/14 12:07:48;;;;;;;20.53;8.60;;;0.70;99.90;;;;;;4972218;28;20500;-48
2022/12/14 12:10:27;;;;;;;20.85;8.00;;;1.00;99.90;;;;;;4972891;28;20035;-51
2022/12/14 12:12:56;;;;;;;19.30;8.67;;;1.20;99.90;;;;;;4972900;28;20502;-52
2022/12/14 12:15:34;;;;;;;19.15;8.45;;;1.20;99.90;;;;;;4973167;28;20031;-51
2022/12/14 12:18:27;;;;;;;20.97;8.30;;;1.50;99.90;;;;;;4971774;28;20035;-52
2022/12/14 12:21:28;;;;;;;15.27;6.97;;;1.80;99.90;;;;;;4964638;28;20404;-52
2022/12/14 12:24:15;;;;;;;14.20;6.60;;;2.00;99.90;;;;;;4951801;28;20043;-52
2022/12/14 12:26:56;;;;;;;15.93;6.80;;;2.30;99.90;;;;;;4952533;28;20110;-54
2022/12/14 12:29:46;;;;;;;12.80;6.77;;;2.90;99.90;;;;;;4952732;28;20050;-55
2022/12/14 12:32:22;;;;;;;14.33;6.47;;;3.80;98.40;;;;;;4952247;29;20027;-53
2022/12/14 12:35:01;;;;;;;14.60;6.67;;;4.70;96.60;;;;;;4953839;28;20446;-51
2022/12/14 12:37:31;;;;;;;14.77;7.20;;;5.60;93.70;;;;;;4952482;28;20047;-51
2022/12/14 12:40:32;;;;;;;13.57;7.17;;;6.60;91.20;;;;;;4952891;28;20182;-52
2022/12/14 12:43:07;;;;;;;14.20;7.07;;;7.60;87.00;;;;;;4952856;29;20108;-53
2022/12/14 12:45:53;;;;;;;15.33;7.20;;;8.30;83.10;;;;;;4952594;28;20122;-53
2022/12/14 12:48:26;;;;;;;13.20;7.15;;;9.10;76.50;;;;;;4951638;28;20127;-53
2022/12/14 12:51:01;;;;;;;10.82;6.50;;;9.30;72.00;;;;;;4952991;28;20027;-55
2022/12/14 12:53:37;;;;;;;13.52;7.00;;;9.60;72.50;;;;;;4952631;28;20030;-53
2022/12/14 12:56:42;;;;;;;13.90;7.05;;;9.50;69.10;;;;;;4952788;28;20039;-52
2022/12/14 12:59:32;;;;;;;14.43;7.68;;;9.10;69.60;;;;;;4952583;28;20385;-51
2022/12/14 13:02:04;;;;;;;15.00;7.47;;;8.70;70.70;;;;;;4952312;28;20031;-53
2022/12/14 13:04:38;;;;;;;13.85;7.80;;;8.10;71.20;;;;;;4951893;28;20031;-53
2022/12/14 13:07:25;;;;;;;12.77;7.32;;;7.20;73.60;;;;;;4951992;28;20508;-54
2022/12/14 13:10:03;;;;;;;14.55;7.80;;;7.20;76.90;;;;;;4967385;28;20039;-53
2022/12/14 13:12:36;;;;;;;13.30;7.70;;;8.00;75.10;;;;;;4952364;28;20043;-51
2022/12/14 13:15:06;;;;;;;17.65;7.07;;;8.50;72.80;;;;;;4952827;28;20053;-51
2022/12/14 13:17:36;;;;;;;12.45;7.13;;;7.70;72.90;;;;;;4950942;28;20043;-50
2022/12/14 13:20:13;;;;;;;11.07;7.50;;;8.20;74.20;;;;;;4952500;28;20468;-53
2022/12/14 13:22:39;;;;;;;11.52;7.63;;;9.10;71.30;;;;;;4952426;28;20074;-53
2022/12/14 13:25:24;;;;;;;11.43;7.25;;;9.90;67.80;;;;;;4952427;28;20035;-49